createdAt,value
2017-07-08T00:00:19.801Z,53
2017-07-08T00:01:27.896Z,53
2017-07-08T00:02:35.984Z,53
2017-07-08T00:03:44.074Z,53
2017-07-08T00:04:52.165Z,53
2017-07-08T00:06:00.254Z,53
2017-07-08T00:07:08.342Z,53
2017-07-08T00:08:16.430Z,53
2017-07-08T00:09:24.527Z,53
2017-07-08T00:10:32.618Z,53
2017-07-08T00:11:40.704Z,53
2017-07-08T00:12:48.794Z,53
2017-07-08T00:13:56.892Z,53
2017-07-08T00:15:04.980Z,53
2017-07-08T00:16:13.071Z,53
2017-07-08T00:17:21.160Z,53
2017-07-08T00:18:29.249Z,53
2017-07-08T00:19:37.338Z,53
2017-07-08T00:20:45.429Z,53
2017-07-08T00:21:53.519Z,53
2017-07-08T00:23:01.606Z,53
2017-07-08T00:24:09.696Z,53
2017-07-08T00:25:17.788Z,53
2017-07-08T00:26:25.876Z,53
2017-07-08T00:27:33.962Z,53
2017-07-08T00:28:42.052Z,53
2017-07-08T00:29:50.147Z,53
2017-07-08T00:30:58.231Z,53
2017-07-08T00:32:06.323Z,53
2017-07-08T00:33:14.409Z,53
2017-07-08T00:34:22.497Z,53
2017-07-08T00:35:30.587Z,53
2017-07-08T00:36:38.756Z,53
2017-07-08T00:37:46.766Z,53
2017-07-08T00:38:54.857Z,53
2017-07-08T00:40:02.946Z,53
2017-07-08T00:41:11.037Z,53
2017-07-08T00:42:19.123Z,53
2017-07-08T00:43:27.212Z,53
2017-07-08T00:44:35.299Z,53
2017-07-08T00:45:43.388Z,53
2017-07-08T00:46:51.480Z,53
2017-07-08T00:47:59.573Z,53
2017-07-08T00:49:07.669Z,53
2017-07-08T00:50:15.749Z,53
2017-07-08T00:51:23.836Z,53
2017-07-08T00:52:31.925Z,53
2017-07-08T00:53:40.012Z,53
2017-07-08T00:54:48.102Z,53
2017-07-08T00:55:56.193Z,53
2017-07-08T00:57:04.308Z,53
2017-07-08T00:58:12.371Z,53
2017-07-08T00:59:20.458Z,53
2017-07-08T01:00:28.548Z,53
2017-07-08T01:01:36.639Z,53
2017-07-08T01:02:44.727Z,53
2017-07-08T01:03:52.817Z,53
2017-07-08T01:05:00.902Z,53
2017-07-08T01:06:09.016Z,53
2017-07-08T01:07:17.082Z,53
2017-07-08T01:08:25.170Z,53
2017-07-08T01:09:33.260Z,53
2017-07-08T01:10:41.351Z,53
2017-07-08T01:11:49.440Z,53
2017-07-08T01:12:57.530Z,53
2017-07-08T01:14:05.615Z,53
2017-07-08T01:15:13.706Z,53
2017-07-08T01:16:21.794Z,53
2017-07-08T01:17:29.886Z,53
2017-07-08T01:18:37.975Z,53
2017-07-08T01:19:46.063Z,53
2017-07-08T01:20:54.154Z,53
2017-07-08T01:22:02.242Z,53
2017-07-08T01:23:10.331Z,53
2017-07-08T01:24:18.420Z,53
2017-07-08T01:25:26.563Z,53
2017-07-08T01:26:34.644Z,53
2017-07-08T01:27:42.694Z,53
2017-07-08T01:28:50.780Z,53
2017-07-08T01:29:58.868Z,53
2017-07-08T01:31:06.956Z,53
2017-07-08T01:32:15.046Z,53
2017-07-08T01:33:23.134Z,53
2017-07-08T01:34:31.223Z,53
2017-07-08T01:35:39.314Z,53
2017-07-08T01:36:47.402Z,53
2017-07-08T01:37:55.492Z,53
2017-07-08T01:39:03.579Z,53
2017-07-08T01:40:11.669Z,53
2017-07-08T01:41:19.759Z,53
2017-07-08T01:42:27.848Z,53
2017-07-08T01:43:35.976Z,53
2017-07-08T01:44:44.024Z,53
2017-07-08T01:45:52.113Z,53
2017-07-08T01:47:00.203Z,53
2017-07-08T01:48:08.293Z,53
2017-07-08T01:49:16.382Z,53
2017-07-08T01:50:24.473Z,53
2017-07-08T01:51:32.563Z,53
2017-07-08T01:52:40.653Z,53
2017-07-08T01:53:48.739Z,53
2017-07-08T01:54:56.827Z,53
2017-07-08T01:56:04.922Z,53
2017-07-08T01:57:13.007Z,53
2017-07-08T01:58:21.097Z,53
2017-07-08T01:59:29.186Z,53
2017-07-08T02:00:37.322Z,53
2017-07-08T02:01:45.363Z,53
2017-07-08T02:02:53.455Z,53
2017-07-08T02:04:01.541Z,53
2017-07-08T02:05:09.633Z,53
2017-07-08T02:06:17.727Z,53
2017-07-08T02:07:25.815Z,53
2017-07-08T02:08:33.904Z,53
2017-07-08T02:09:41.994Z,53
2017-07-08T02:10:50.085Z,53
2017-07-08T02:11:58.172Z,53
2017-07-08T02:13:06.259Z,53
2017-07-08T02:14:14.349Z,53
2017-07-08T02:15:22.438Z,53
2017-07-08T02:16:30.527Z,53
2017-07-08T02:17:38.628Z,53
2017-07-08T02:18:46.708Z,53
2017-07-08T02:19:54.798Z,53
2017-07-08T02:21:02.884Z,53
2017-07-08T02:22:10.980Z,53
2017-07-08T02:23:19.069Z,53
2017-07-08T02:24:27.163Z,53
2017-07-08T02:25:35.248Z,53
2017-07-08T02:26:43.340Z,53
2017-07-08T02:27:51.429Z,53
2017-07-08T02:28:59.517Z,53
2017-07-08T02:30:07.606Z,53
2017-07-08T02:31:15.693Z,53
2017-07-08T02:32:23.782Z,53
2017-07-08T02:33:31.873Z,53
2017-07-08T02:34:40.009Z,53
2017-07-08T02:35:48.050Z,53
2017-07-08T02:36:56.139Z,53
2017-07-08T02:38:04.229Z,53
2017-07-08T02:39:12.317Z,53
2017-07-08T02:40:20.407Z,53
2017-07-08T02:41:28.496Z,53
2017-07-08T02:42:36.584Z,53
2017-07-08T02:43:44.676Z,53
2017-07-08T02:44:52.764Z,53
2017-07-08T02:46:00.852Z,53
2017-07-08T02:47:08.942Z,53
2017-07-08T02:48:17.032Z,53
2017-07-08T02:49:25.119Z,53
2017-07-08T02:50:33.208Z,53
2017-07-08T02:51:41.297Z,53
2017-07-08T02:52:49.386Z,53
2017-07-08T02:53:57.477Z,53
2017-07-08T02:55:05.565Z,53
2017-07-08T02:56:13.655Z,53
2017-07-08T02:57:21.745Z,53
2017-07-08T02:58:29.835Z,53
2017-07-08T02:59:37.923Z,53
2017-07-08T03:00:46.013Z,53
2017-07-08T03:01:54.099Z,53
2017-07-08T03:03:02.189Z,53
2017-07-08T03:04:10.296Z,53
2017-07-08T03:05:18.368Z,53
2017-07-08T03:06:26.457Z,53
2017-07-08T03:07:34.546Z,53
2017-07-08T03:08:42.636Z,53
2017-07-08T03:09:50.724Z,53
2017-07-08T03:10:58.814Z,53
2017-07-08T03:12:06.901Z,53
2017-07-08T03:13:14.991Z,53
2017-07-08T03:14:23.081Z,53
2017-07-08T03:15:31.170Z,53
2017-07-08T03:16:39.259Z,53
2017-07-08T03:17:47.349Z,53
2017-07-08T03:18:55.436Z,53
2017-07-08T03:20:03.526Z,53
2017-07-08T03:21:11.614Z,53
2017-07-08T03:22:19.702Z,53
2017-07-08T03:23:27.792Z,53
2017-07-08T03:24:35.883Z,53
2017-07-08T03:25:43.971Z,53
2017-07-08T03:26:52.061Z,53
2017-07-08T03:28:00.148Z,53
2017-07-08T03:29:08.239Z,53
2017-07-08T03:30:16.325Z,53
2017-07-08T03:31:24.415Z,53
2017-07-08T03:32:32.505Z,53
2017-07-08T03:33:40.593Z,53
2017-07-08T03:34:48.681Z,53
2017-07-08T03:35:56.771Z,53
2017-07-08T03:37:04.862Z,53
2017-07-08T03:38:12.950Z,53
2017-07-08T03:39:21.040Z,53
2017-07-08T03:40:29.125Z,53
2017-07-08T03:41:37.216Z,53
2017-07-08T03:42:45.305Z,53
2017-07-08T03:43:53.395Z,53
2017-07-08T03:45:01.484Z,53
2017-07-08T03:46:09.573Z,53
2017-07-08T03:47:17.664Z,53
2017-07-08T03:48:25.753Z,53
2017-07-08T03:49:33.842Z,53
2017-07-08T03:50:41.928Z,53
2017-07-08T03:51:50.018Z,53
2017-07-08T03:52:58.108Z,53
2017-07-08T03:54:06.197Z,53
2017-07-08T03:55:14.286Z,53
2017-07-08T03:56:22.382Z,53
2017-07-08T03:57:30.470Z,53
2017-07-08T03:58:38.558Z,53
2017-07-08T03:59:46.649Z,53
2017-07-08T04:00:54.737Z,53
2017-07-08T04:02:02.827Z,53
2017-07-08T04:03:10.915Z,53
2017-07-08T04:04:19.005Z,53
2017-07-08T04:05:27.095Z,53
2017-07-08T04:06:35.184Z,53
2017-07-08T04:07:43.271Z,53
2017-07-08T04:08:51.360Z,53
2017-07-08T04:09:59.447Z,53
2017-07-08T04:11:07.538Z,53
2017-07-08T04:12:15.629Z,53
2017-07-08T04:13:23.715Z,53
2017-07-08T04:14:31.806Z,53
2017-07-08T04:15:39.896Z,53
2017-07-08T04:16:47.983Z,53
2017-07-08T04:17:56.104Z,53
2017-07-08T04:19:04.162Z,53
2017-07-08T04:20:12.250Z,53
2017-07-08T04:21:20.341Z,53
2017-07-08T04:22:28.429Z,53
2017-07-08T04:23:36.518Z,53
2017-07-08T04:24:44.606Z,53
2017-07-08T04:25:52.696Z,54
2017-07-08T04:27:00.789Z,54
2017-07-08T04:28:08.872Z,54
2017-07-08T04:29:16.961Z,54
2017-07-08T04:30:25.051Z,54
2017-07-08T04:31:33.138Z,53
2017-07-08T04:32:41.231Z,54
2017-07-08T04:33:49.318Z,54
2017-07-08T04:34:57.407Z,54
2017-07-08T04:36:05.496Z,54
2017-07-08T04:37:13.583Z,54
2017-07-08T04:38:21.723Z,54
2017-07-08T04:39:29.764Z,54
2017-07-08T04:40:37.850Z,54
2017-07-08T04:41:45.964Z,54
2017-07-08T04:42:54.031Z,54
2017-07-08T04:44:02.121Z,54
2017-07-08T04:45:10.208Z,54
2017-07-08T04:46:18.298Z,54
2017-07-08T04:47:26.385Z,54
2017-07-08T04:48:34.474Z,54
2017-07-08T04:49:42.563Z,54
2017-07-08T04:50:50.654Z,54
2017-07-08T04:51:58.741Z,54
2017-07-08T04:53:06.831Z,54
2017-07-08T04:54:14.921Z,54
2017-07-08T04:55:23.010Z,54
2017-07-08T04:56:31.100Z,55
2017-07-08T04:57:39.189Z,54
2017-07-08T04:58:47.279Z,55
2017-07-08T04:59:55.423Z,54
2017-07-08T05:01:03.454Z,54
2017-07-08T05:02:11.543Z,55
2017-07-08T05:03:19.633Z,54
2017-07-08T05:04:27.722Z,54
2017-07-08T05:05:35.812Z,54
2017-07-08T05:06:43.900Z,55
2017-07-08T05:07:51.989Z,54
2017-07-08T05:09:00.075Z,54
2017-07-08T05:10:08.168Z,54
2017-07-08T05:11:16.391Z,54
2017-07-08T05:12:24.800Z,55
2017-07-08T05:13:32.438Z,55
2017-07-08T05:14:40.525Z,55
2017-07-08T05:15:48.614Z,55
2017-07-08T05:16:56.702Z,55
2017-07-08T05:18:05.015Z,55
2017-07-08T05:19:12.878Z,55
2017-07-08T05:20:22.055Z,55
2017-07-08T05:21:29.057Z,55
2017-07-08T05:22:37.150Z,55
2017-07-08T05:23:45.234Z,55
2017-07-08T05:24:53.324Z,55
2017-07-08T05:26:01.896Z,55
2017-07-08T05:27:09.500Z,55
2017-07-08T05:28:18.050Z,55
2017-07-08T05:29:25.805Z,55
2017-07-08T05:30:33.767Z,55
2017-07-08T05:31:41.856Z,55
2017-07-08T05:32:49.945Z,55
2017-07-08T05:33:58.039Z,55
2017-07-08T05:35:06.627Z,55
2017-07-08T05:36:14.911Z,56
2017-07-08T05:37:22.303Z,55
2017-07-08T05:38:30.392Z,56
2017-07-08T05:39:38.480Z,56
2017-07-08T05:40:46.730Z,56
2017-07-08T05:41:55.048Z,55
2017-07-08T05:43:02.749Z,55
2017-07-08T05:44:10.838Z,55
2017-07-08T05:45:18.925Z,56
2017-07-08T05:46:27.023Z,56
2017-07-08T05:47:35.102Z,56
2017-07-08T05:48:43.188Z,56
2017-07-08T05:49:51.281Z,56
2017-07-08T05:50:59.368Z,56
2017-07-08T05:52:07.458Z,56
2017-07-08T05:53:15.549Z,56
2017-07-08T05:54:23.638Z,57
2017-07-08T05:55:31.724Z,57
2017-07-08T05:56:39.812Z,57
2017-07-08T05:57:47.901Z,57
2017-07-08T05:58:55.991Z,57
2017-07-08T06:00:04.077Z,57
2017-07-08T06:01:12.168Z,57
2017-07-08T06:02:20.255Z,57
2017-07-08T06:03:28.346Z,58
2017-07-08T06:04:36.459Z,57
2017-07-08T06:05:44.523Z,58
2017-07-08T06:06:52.610Z,57
2017-07-08T06:08:00.701Z,58
2017-07-08T06:09:08.789Z,58
2017-07-08T06:10:16.885Z,58
2017-07-08T06:11:24.974Z,58
2017-07-08T06:12:33.062Z,58
2017-07-08T06:13:41.616Z,58
2017-07-08T06:14:49.485Z,58
2017-07-08T06:15:57.338Z,58
2017-07-08T06:17:05.434Z,58
2017-07-08T06:18:13.518Z,58
2017-07-08T06:19:21.607Z,58
2017-07-08T06:20:29.701Z,60
2017-07-08T06:21:38.346Z,61
2017-07-08T06:22:46.202Z,61
2017-07-08T06:23:54.565Z,61
2017-07-08T06:25:02.408Z,61
2017-07-08T06:26:10.139Z,61
2017-07-08T06:27:18.237Z,61
2017-07-08T06:28:26.322Z,61
2017-07-08T06:29:34.418Z,61
2017-07-08T06:30:42.503Z,61
2017-07-08T06:31:50.684Z,61
2017-07-08T06:32:58.716Z,61
2017-07-08T06:34:06.780Z,61
2017-07-08T06:35:14.869Z,61
2017-07-08T06:37:34.269Z,61
2017-07-08T06:38:42.361Z,61
2017-07-08T06:39:50.450Z,61
2017-07-08T06:40:58.536Z,61
2017-07-08T06:42:06.626Z,61
2017-07-08T06:43:14.714Z,61
2017-07-08T06:44:22.805Z,61
2017-07-08T06:45:30.892Z,61
2017-07-08T06:46:38.980Z,61
2017-07-08T06:47:47.074Z,61
2017-07-08T06:48:55.160Z,61
2017-07-08T06:50:03.249Z,61
2017-07-08T06:51:11.336Z,61
2017-07-08T06:52:19.427Z,61
2017-07-08T06:53:27.517Z,61
2017-07-08T06:54:35.609Z,61
2017-07-08T06:55:43.695Z,61
2017-07-08T06:56:51.784Z,61
2017-07-08T06:57:59.872Z,61
2017-07-08T06:59:08.011Z,62
2017-07-08T07:00:16.057Z,61
2017-07-08T07:01:24.146Z,61
2017-07-08T07:02:32.235Z,60
2017-07-08T07:03:40.324Z,61
2017-07-08T07:04:48.458Z,61
2017-07-08T07:05:56.503Z,61
2017-07-08T07:07:04.593Z,60
2017-07-08T07:08:12.680Z,61
2017-07-08T07:09:20.767Z,61
2017-07-08T07:10:28.857Z,61
2017-07-08T07:11:36.944Z,61
2017-07-08T07:12:45.033Z,61
2017-07-08T07:13:53.124Z,61
2017-07-08T07:15:01.212Z,61
2017-07-08T07:16:09.303Z,61
2017-07-08T07:17:17.391Z,61
2017-07-08T07:18:25.478Z,61
2017-07-08T07:19:33.918Z,61
2017-07-08T07:20:41.657Z,61
2017-07-08T07:21:49.748Z,61
2017-07-08T07:22:57.833Z,61
2017-07-08T07:24:06.044Z,61
2017-07-08T07:25:14.012Z,61
2017-07-08T07:26:22.124Z,61
2017-07-08T07:27:30.191Z,62
2017-07-08T07:28:38.278Z,61
2017-07-08T07:29:46.366Z,61
2017-07-08T07:30:54.460Z,61
2017-07-08T07:32:02.545Z,61
2017-07-08T07:33:10.685Z,61
2017-07-08T07:34:18.720Z,61
2017-07-08T07:35:26.812Z,61
2017-07-08T07:36:34.900Z,61
2017-07-08T07:37:42.989Z,61
2017-07-08T07:38:51.079Z,61
2017-07-08T07:39:59.162Z,60
2017-07-08T07:41:07.257Z,60
2017-07-08T07:42:15.346Z,61
2017-07-08T07:43:23.434Z,60
2017-07-08T07:44:31.532Z,60
2017-07-08T07:45:39.612Z,59
2017-07-08T07:46:47.703Z,60
2017-07-08T07:47:55.792Z,60
2017-07-08T07:49:03.880Z,59
2017-07-08T07:50:11.970Z,60
2017-07-08T07:51:20.059Z,59
2017-07-08T07:52:28.148Z,59
2017-07-08T07:53:36.265Z,59
2017-07-08T07:54:44.333Z,59
2017-07-08T07:55:52.420Z,59
2017-07-08T07:57:00.516Z,59
2017-07-08T07:58:08.604Z,59
2017-07-08T07:59:16.695Z,59
2017-07-08T08:00:25.078Z,59
2017-07-08T08:01:32.877Z,59
2017-07-08T08:02:40.966Z,59
2017-07-08T08:03:49.058Z,58
2017-07-08T08:04:57.155Z,59
2017-07-08T08:06:05.235Z,59
2017-07-08T08:07:13.348Z,58
2017-07-08T08:08:21.603Z,58
2017-07-08T08:09:29.503Z,58
2017-07-08T08:10:37.596Z,58
2017-07-08T08:11:45.686Z,58
2017-07-08T08:12:53.775Z,58
2017-07-08T08:14:01.864Z,58
2017-07-08T08:15:09.955Z,58
2017-07-08T08:16:18.042Z,58
2017-07-08T08:17:26.130Z,58
2017-07-08T08:18:34.222Z,58
2017-07-08T08:19:42.312Z,58
2017-07-08T08:20:50.401Z,58
2017-07-08T08:21:58.515Z,58
2017-07-08T08:23:06.581Z,58
2017-07-08T08:24:14.671Z,58
2017-07-08T08:25:22.808Z,58
2017-07-08T08:26:30.850Z,58
2017-07-08T08:27:38.939Z,57
2017-07-08T08:28:47.028Z,57
2017-07-08T08:29:55.120Z,58
2017-07-08T08:31:03.209Z,58
2017-07-08T08:32:11.299Z,58
2017-07-08T08:33:19.389Z,58
2017-07-08T08:34:27.479Z,58
2017-07-08T08:35:35.568Z,57
2017-07-08T08:36:43.667Z,58
2017-07-08T08:37:51.746Z,58
2017-07-08T08:38:59.837Z,57
2017-07-08T08:40:07.927Z,57
2017-07-08T08:41:16.017Z,57
2017-07-08T08:42:24.159Z,57
2017-07-08T08:43:32.199Z,57
2017-07-08T08:44:40.291Z,57
2017-07-08T08:45:48.382Z,57
2017-07-08T08:46:56.472Z,57
2017-07-08T08:48:04.564Z,57
2017-07-08T08:49:12.653Z,57
2017-07-08T08:50:20.744Z,57
2017-07-08T08:51:28.833Z,57
2017-07-08T08:52:36.925Z,57
2017-07-08T08:53:45.013Z,57
2017-07-08T08:54:53.104Z,57
2017-07-08T08:56:01.191Z,57
2017-07-08T08:57:09.282Z,57
2017-07-08T08:58:17.375Z,57
2017-07-08T08:59:25.528Z,57
2017-07-08T09:00:33.552Z,57
2017-07-08T09:01:41.643Z,57
2017-07-08T09:02:49.736Z,57
2017-07-08T09:03:57.823Z,57
2017-07-08T09:05:05.937Z,57
2017-07-08T09:06:14.003Z,56
2017-07-08T09:07:22.092Z,56
2017-07-08T09:08:30.187Z,56
2017-07-08T09:09:38.399Z,57
2017-07-08T09:10:46.367Z,57
2017-07-08T09:11:54.458Z,57
2017-07-08T09:13:02.550Z,57
2017-07-08T09:14:10.640Z,56
2017-07-08T09:15:18.728Z,57
2017-07-08T09:16:26.831Z,57
2017-07-08T09:17:34.908Z,57
2017-07-08T09:18:42.998Z,57
2017-07-08T09:19:51.090Z,57
2017-07-08T09:20:59.178Z,57
2017-07-08T09:22:07.270Z,56
2017-07-08T09:23:15.359Z,57
2017-07-08T09:24:23.451Z,57
2017-07-08T09:25:31.538Z,56
2017-07-08T09:26:39.628Z,57
2017-07-08T09:27:47.717Z,57
2017-07-08T09:28:55.810Z,57
2017-07-08T09:30:03.899Z,56
2017-07-08T09:31:11.991Z,56
2017-07-08T09:32:20.085Z,57
2017-07-08T09:33:28.235Z,56
2017-07-08T09:34:36.261Z,56
2017-07-08T09:35:44.350Z,57
2017-07-08T09:36:52.440Z,57
2017-07-08T09:38:00.529Z,57
2017-07-08T09:39:08.621Z,57
2017-07-08T09:40:16.719Z,56
2017-07-08T09:41:24.806Z,56
2017-07-08T09:42:32.904Z,57
2017-07-08T09:43:40.994Z,57
2017-07-08T09:44:49.085Z,57
2017-07-08T09:45:57.176Z,57
2017-07-08T09:47:05.287Z,57
2017-07-08T09:48:13.356Z,57
2017-07-08T09:49:21.449Z,56
2017-07-08T09:50:29.547Z,57
2017-07-08T09:51:37.633Z,56
2017-07-08T09:52:45.723Z,57
2017-07-08T09:53:53.815Z,56
2017-07-08T09:55:01.906Z,56
2017-07-08T09:56:09.996Z,56
2017-07-08T09:57:18.093Z,56
2017-07-08T09:58:26.183Z,56
2017-07-08T09:59:34.273Z,56
2017-07-08T10:00:42.364Z,56
2017-07-08T10:01:50.453Z,56
2017-07-08T10:02:58.544Z,56
2017-07-08T10:04:06.635Z,56
2017-07-08T10:05:14.726Z,56
2017-07-08T10:06:22.816Z,56
2017-07-08T10:07:30.921Z,56
2017-07-08T10:08:38.994Z,56
2017-07-08T10:09:47.084Z,56
2017-07-08T10:10:55.177Z,56
2017-07-08T10:12:03.267Z,56
2017-07-08T10:13:11.358Z,56
2017-07-08T10:14:19.454Z,56
2017-07-08T10:15:27.545Z,56
2017-07-08T10:16:35.639Z,56
2017-07-08T10:17:43.724Z,56
2017-07-08T10:18:51.816Z,56
2017-07-08T10:19:59.906Z,56
2017-07-08T10:21:08.028Z,56
2017-07-08T10:22:16.093Z,56
2017-07-08T10:23:24.183Z,56
2017-07-08T10:24:32.272Z,56
2017-07-08T10:25:40.362Z,56
2017-07-08T10:26:48.453Z,56
2017-07-08T10:27:56.542Z,56
2017-07-08T10:29:04.637Z,56
2017-07-08T10:30:12.728Z,56
2017-07-08T10:31:20.814Z,56
2017-07-08T10:32:28.907Z,56
2017-07-08T10:33:36.996Z,56
2017-07-08T10:34:45.096Z,56
2017-07-08T10:35:53.178Z,56
2017-07-08T10:37:01.270Z,56
2017-07-08T10:38:09.361Z,56
2017-07-08T10:39:17.451Z,56
2017-07-08T10:40:25.541Z,56
2017-07-08T10:41:33.630Z,56
2017-07-08T10:42:41.722Z,56
2017-07-08T10:43:49.811Z,56
2017-07-08T10:44:57.906Z,56
2017-07-08T10:46:06.019Z,56
2017-07-08T10:47:14.109Z,56
2017-07-08T10:48:22.181Z,56
2017-07-08T10:49:30.278Z,56
2017-07-08T10:50:38.367Z,56
2017-07-08T10:51:46.458Z,56
2017-07-08T10:52:54.549Z,56
2017-07-08T10:54:02.639Z,56
2017-07-08T10:55:10.734Z,56
2017-07-08T10:56:18.826Z,56
2017-07-08T10:57:26.922Z,56
2017-07-08T10:58:35.007Z,56
2017-07-08T10:59:43.097Z,56
2017-07-08T11:00:51.187Z,56
2017-07-08T11:01:59.346Z,56
2017-07-08T11:03:07.370Z,56
2017-07-08T11:04:15.461Z,56
2017-07-08T11:05:23.553Z,56
2017-07-08T11:06:31.644Z,56
2017-07-08T11:07:39.737Z,56
2017-07-08T11:08:47.829Z,56
2017-07-08T11:09:55.918Z,56
2017-07-08T11:11:04.009Z,56
2017-07-08T11:12:12.101Z,56
2017-07-08T11:13:20.213Z,56
2017-07-08T11:14:28.282Z,56
2017-07-08T11:15:36.371Z,56
2017-07-08T11:16:44.465Z,56
2017-07-08T11:17:52.557Z,56
2017-07-08T11:19:00.647Z,56
2017-07-08T11:20:08.737Z,56
2017-07-08T11:21:16.828Z,56
2017-07-08T11:22:24.919Z,56
2017-07-08T11:23:33.008Z,56
2017-07-08T11:24:41.099Z,55
2017-07-08T11:25:49.192Z,56
2017-07-08T11:26:57.283Z,55
2017-07-08T11:28:05.380Z,55
2017-07-08T11:29:13.463Z,55
2017-07-08T11:30:21.554Z,56
2017-07-08T11:31:29.669Z,55
2017-07-08T11:32:37.735Z,55
2017-07-08T11:33:45.826Z,55
2017-07-08T11:34:53.925Z,56
2017-07-08T11:36:02.008Z,55
2017-07-08T11:37:10.098Z,55
2017-07-08T11:38:18.187Z,55
2017-07-08T11:39:26.279Z,56
2017-07-08T11:40:34.372Z,55
2017-07-08T11:41:42.461Z,55
2017-07-08T11:42:50.552Z,55
2017-07-08T11:43:58.643Z,55
2017-07-08T11:45:06.734Z,55
2017-07-08T11:46:14.823Z,55
2017-07-08T11:47:22.916Z,55
2017-07-08T11:48:31.007Z,55
2017-07-08T11:49:39.098Z,55
2017-07-08T11:50:47.187Z,55
2017-07-08T11:51:55.279Z,55
2017-07-08T11:53:03.372Z,55
2017-07-08T11:54:11.460Z,55
2017-07-08T11:55:19.550Z,55
2017-07-08T11:56:27.642Z,55
2017-07-08T11:57:35.731Z,55
2017-07-08T11:58:43.837Z,55
2017-07-08T11:59:51.928Z,55
2017-07-08T12:01:00.018Z,55
2017-07-08T12:02:08.110Z,56
2017-07-08T12:03:16.199Z,55
2017-07-08T12:04:24.293Z,56
2017-07-08T12:05:32.384Z,55
2017-07-08T12:06:40.476Z,55
2017-07-08T12:07:48.575Z,55
2017-07-08T12:08:56.666Z,55
2017-07-08T12:10:04.757Z,55
2017-07-08T12:11:12.851Z,55
2017-07-08T12:12:20.941Z,55
2017-07-08T12:13:29.028Z,55
2017-07-08T12:14:37.171Z,55
2017-07-08T12:15:45.224Z,55
2017-07-08T12:16:53.303Z,55
2017-07-08T12:18:01.393Z,55
2017-07-08T12:19:09.485Z,55
2017-07-08T12:20:17.575Z,55
2017-07-08T12:21:25.664Z,56
2017-07-08T12:22:33.756Z,56
2017-07-08T12:23:41.845Z,56
2017-07-08T12:24:49.936Z,56
2017-07-08T12:25:58.031Z,56
2017-07-08T12:27:06.121Z,56
2017-07-08T12:28:14.212Z,56
2017-07-08T12:29:22.301Z,56
2017-07-08T12:30:30.389Z,56
2017-07-08T12:31:38.480Z,55
2017-07-08T12:32:46.627Z,55
2017-07-08T12:33:54.662Z,55
2017-07-08T12:35:02.754Z,55
2017-07-08T12:36:10.846Z,55
2017-07-08T12:37:18.938Z,55
2017-07-08T12:38:27.028Z,55
2017-07-08T12:39:35.119Z,55
2017-07-08T12:40:43.207Z,55
2017-07-08T12:41:51.298Z,55
2017-07-08T12:42:59.390Z,55
2017-07-08T12:44:07.482Z,55
2017-07-08T12:45:15.571Z,55
2017-07-08T12:46:23.663Z,55
2017-07-08T12:47:31.754Z,55
2017-07-08T12:48:39.844Z,55
2017-07-08T12:49:47.958Z,55
2017-07-08T12:50:56.022Z,55
2017-07-08T12:52:04.115Z,55
2017-07-08T12:53:12.206Z,55
2017-07-08T12:54:20.297Z,55
2017-07-08T12:55:28.388Z,55
2017-07-08T12:56:36.478Z,55
2017-07-08T12:57:44.575Z,55
2017-07-08T12:58:52.666Z,54
2017-07-08T13:00:00.755Z,54
2017-07-08T13:01:08.849Z,54
2017-07-08T13:02:16.939Z,54
2017-07-08T13:03:25.031Z,55
2017-07-08T13:04:33.120Z,55
2017-07-08T13:05:41.213Z,55
2017-07-08T13:06:49.302Z,55
2017-07-08T13:07:57.395Z,54
2017-07-08T13:09:05.494Z,54
2017-07-08T13:10:13.573Z,55
2017-07-08T13:11:21.670Z,54
2017-07-08T13:12:29.764Z,55
2017-07-08T13:13:37.854Z,55
2017-07-08T13:14:45.944Z,55
2017-07-08T13:15:54.034Z,55
2017-07-08T13:17:02.125Z,55
2017-07-08T13:18:10.216Z,55
2017-07-08T13:19:18.307Z,55
2017-07-08T13:20:26.398Z,55
2017-07-08T13:21:34.487Z,55
2017-07-08T13:22:42.579Z,55
2017-07-08T13:23:50.693Z,55
2017-07-08T13:24:58.763Z,54
2017-07-08T13:26:06.856Z,54
2017-07-08T13:27:14.943Z,54
2017-07-08T13:28:23.033Z,55
2017-07-08T13:29:31.125Z,54
2017-07-08T13:30:39.215Z,54
2017-07-08T13:31:47.331Z,53
2017-07-08T13:32:55.398Z,53
2017-07-08T13:34:03.487Z,53
2017-07-08T13:35:11.579Z,53
2017-07-08T13:36:19.670Z,53
2017-07-08T13:37:27.761Z,53
2017-07-08T13:38:35.850Z,53
2017-07-08T13:39:43.944Z,52
2017-07-08T13:40:52.043Z,52
2017-07-08T13:42:00.122Z,52
2017-07-08T13:43:08.216Z,52
2017-07-08T13:44:16.307Z,52
2017-07-08T13:45:24.397Z,52
2017-07-08T13:46:32.486Z,52
2017-07-08T13:47:40.578Z,52
2017-07-08T13:48:48.668Z,52
2017-07-08T13:49:56.760Z,51
2017-07-08T13:51:04.851Z,52
2017-07-08T13:52:12.943Z,52
2017-07-08T13:53:21.090Z,51
2017-07-08T13:54:29.124Z,51
2017-07-08T13:55:37.214Z,50
2017-07-08T13:56:45.305Z,50
2017-07-08T13:57:53.396Z,50
2017-07-08T13:59:01.486Z,50
2017-07-08T14:00:09.578Z,50
2017-07-08T14:01:17.669Z,50
2017-07-08T14:02:25.759Z,50
2017-07-08T14:03:33.851Z,50
2017-07-08T14:04:41.945Z,49
2017-07-08T14:05:50.032Z,49
2017-07-08T14:06:58.127Z,49
2017-07-08T14:08:06.239Z,49
2017-07-08T14:09:14.304Z,49
2017-07-08T14:10:22.394Z,49
2017-07-08T14:11:30.488Z,48
2017-07-08T14:12:38.579Z,47
2017-07-08T14:13:46.674Z,48
2017-07-08T14:14:54.768Z,48
2017-07-08T14:16:02.850Z,48
2017-07-08T14:17:10.940Z,48
2017-07-08T14:18:19.031Z,48
2017-07-08T14:19:27.122Z,48
2017-07-08T14:20:35.212Z,48
2017-07-08T14:21:43.304Z,48
2017-07-08T14:22:51.399Z,48
2017-07-08T14:23:59.495Z,48
2017-07-08T14:25:07.584Z,48
2017-07-08T14:26:15.675Z,48
2017-07-08T14:27:23.763Z,48
2017-07-08T14:28:31.855Z,48
2017-07-08T14:29:39.947Z,48
2017-07-08T14:30:48.033Z,48
2017-07-08T14:31:56.152Z,49
2017-07-08T14:33:04.220Z,49
2017-07-08T14:34:12.312Z,48
2017-07-08T14:35:20.402Z,49
2017-07-08T14:36:28.490Z,49
2017-07-08T14:37:36.580Z,49
2017-07-08T14:38:44.677Z,49
2017-07-08T14:39:52.836Z,49
2017-07-08T14:41:00.853Z,49
2017-07-08T14:42:08.945Z,49
2017-07-08T14:43:17.036Z,49
2017-07-08T14:44:25.127Z,49
2017-07-08T14:45:33.217Z,49
2017-07-08T14:46:41.308Z,49
2017-07-08T14:47:49.399Z,49
2017-07-08T14:48:57.490Z,48
2017-07-08T14:50:05.580Z,48
2017-07-08T14:51:13.671Z,48
2017-07-08T14:52:21.761Z,47
2017-07-08T14:53:29.872Z,48
2017-07-08T14:54:37.965Z,47
2017-07-08T14:55:46.055Z,47
2017-07-08T14:56:54.149Z,47
2017-07-08T14:58:02.238Z,47
2017-07-08T14:59:10.328Z,47
2017-07-08T15:00:18.420Z,47
2017-07-08T15:01:26.513Z,47
2017-07-08T15:02:34.604Z,47
2017-07-08T15:03:42.693Z,47
2017-07-08T15:04:50.787Z,47
2017-07-08T15:05:58.876Z,47
2017-07-08T15:07:06.966Z,47
2017-07-08T15:08:15.057Z,47
2017-07-08T15:09:23.170Z,48
2017-07-08T15:10:31.236Z,48
2017-07-08T15:11:39.327Z,48
2017-07-08T15:12:47.417Z,48
2017-07-08T15:13:55.516Z,48
2017-07-08T15:15:03.605Z,48
2017-07-08T15:16:11.706Z,48
2017-07-08T15:17:19.803Z,49
2017-07-08T15:18:27.892Z,49
2017-07-08T15:19:35.983Z,49
2017-07-08T15:20:44.075Z,50
2017-07-08T15:21:52.190Z,49
2017-07-08T15:23:00.255Z,50
2017-07-08T15:24:08.346Z,49
2017-07-08T15:25:16.438Z,49
2017-07-08T15:26:24.527Z,49
2017-07-08T15:29:48.803Z,48
2017-07-08T15:30:56.892Z,47
2017-07-08T15:34:21.162Z,50
2017-07-08T15:35:29.255Z,50
2017-07-08T15:36:37.345Z,50
2017-07-08T15:37:45.435Z,51
2017-07-08T15:38:53.533Z,51
2017-07-08T15:40:01.625Z,52
2017-07-08T15:41:09.713Z,52
2017-07-08T15:42:17.805Z,53
2017-07-08T15:43:25.893Z,52
2017-07-08T15:44:33.984Z,52
2017-07-08T15:45:42.076Z,52
2017-07-08T15:46:50.164Z,52
2017-07-08T15:47:58.256Z,53
2017-07-08T15:49:06.354Z,53
2017-07-08T15:50:14.438Z,53
2017-07-08T15:51:22.527Z,54
2017-07-08T15:52:30.618Z,53
2017-07-08T15:53:38.708Z,54
2017-07-08T15:54:46.797Z,54
2017-07-08T15:55:54.887Z,54
2017-07-08T15:57:02.980Z,54
2017-07-08T15:58:11.070Z,54
2017-07-08T15:59:19.162Z,54
2017-07-08T16:00:27.252Z,53
2017-07-08T16:01:35.343Z,53
2017-07-08T16:02:43.432Z,53
2017-07-08T16:03:51.522Z,53
2017-07-08T16:04:59.612Z,53
2017-07-08T16:07:15.794Z,53
2017-07-08T16:08:23.890Z,53
2017-07-08T16:09:31.981Z,53
2017-07-08T16:10:40.069Z,53
2017-07-08T16:12:56.249Z,54
2017-07-08T16:14:04.348Z,54
2017-07-08T16:15:12.464Z,54
2017-07-08T16:18:36.714Z,54
2017-07-08T16:19:44.800Z,54
2017-07-08T16:20:52.894Z,54